sensor_id;sensor_type;location;lat;lon;timestamp;P1;durP1;ratioP1;P2;durP2;ratioP2
29548;SDS011;16487;53.094;8.800;2022-09-27T00:00:37;18.53;;;16.50;;
29548;SDS011;16487;53.094;8.800;2022-09-27T00:03:05;21.13;;;17.60;;
29548;SDS011;16487;53.094;8.800;2022-09-27T00:05:33;21.20;;;17.63;;
29548;SDS011;16487;53.094;8.800;2022-09-27T00:08:00;20.40;;;18.13;;
29548;SDS011;16487;53.094;8.800;2022-09-27T00:10:28;22.20;;;19.00;;
29548;SDS011;16487;53.094;8.800;2022-09-27T00:12:55;20.80;;;17.47;;
29548;SDS011;16487;53.094;8.800;2022-09-27T00:15:23;20.23;;;17.17;;
29548;SDS011;16487;53.094;8.800;2022-09-27T00:17:51;23.10;;;18.43;;
29548;SDS011;16487;53.094;8.800;2022-09-27T00:20:20;23.30;;;18.77;;
29548;SDS011;16487;53.094;8.800;2022-09-27T00:22:47;23.43;;;18.07;;
29548;SDS011;16487;53.094;8.800;2022-09-27T00:25:15;22.73;;;18.80;;
29548;SDS011;16487;53.094;8.800;2022-09-27T00:27:43;25.47;;;19.70;;
29548;SDS011;16487;53.094;8.800;2022-09-27T00:30:11;26.13;;;19.77;;
29548;SDS011;16487;53.094;8.800;2022-09-27T00:32:38;25.90;;;19.93;;
29548;SDS011;16487;53.094;8.800;2022-09-27T00:35:06;25.53;;;21.03;;
29548;SDS011;16487;53.094;8.800;2022-09-27T00:37:35;29.87;;;19.70;;
29548;SDS011;16487;53.094;8.800;2022-09-27T00:40:03;31.63;;;22.33;;
29548;SDS011;16487;53.094;8.800;2022-09-27T00:42:31;30.60;;;23.23;;
29548;SDS011;16487;53.094;8.800;2022-09-27T00:44:59;31.83;;;21.60;;
29548;SDS011;16487;53.094;8.800;2022-09-27T00:47:34;29.63;;;21.40;;
29548;SDS011;16487;53.094;8.800;2022-09-27T00:50:08;33.10;;;22.00;;
29548;SDS011;16487;53.094;8.800;2022-09-27T00:52:44;32.40;;;23.23;;
29548;SDS011;16487;53.094;8.800;2022-09-27T00:55:19;33.63;;;21.60;;
29548;SDS011;16487;53.094;8.800;2022-09-27T00:57:51;37.70;;;22.97;;
29548;SDS011;16487;53.094;8.800;2022-09-27T01:00:19;36.23;;;23.50;;
29548;SDS011;16487;53.094;8.800;2022-09-27T01:02:48;35.47;;;24.33;;
29548;SDS011;16487;53.094;8.800;2022-09-27T01:05:20;34.80;;;22.20;;
29548;SDS011;16487;53.094;8.800;2022-09-27T01:07:51;31.60;;;22.67;;
29548;SDS011;16487;53.094;8.800;2022-09-27T01:10:19;34.03;;;22.77;;
29548;SDS011;16487;53.094;8.800;2022-09-27T01:12:51;40.00;;;25.00;;
29548;SDS011;16487;53.094;8.800;2022-09-27T01:15:25;38.47;;;21.97;;
29548;SDS011;16487;53.094;8.800;2022-09-27T01:18:02;32.17;;;20.10;;
29548;SDS011;16487;53.094;8.800;2022-09-27T01:27:27;31.23;;;17.43;;
29548;SDS011;16487;53.094;8.800;2022-09-27T01:30:13;29.17;;;18.03;;
29548;SDS011;16487;53.094;8.800;2022-09-27T01:32:50;30.80;;;18.40;;
29548;SDS011;16487;53.094;8.800;2022-09-27T01:35:27;28.77;;;18.83;;
29548;SDS011;16487;53.094;8.800;2022-09-27T01:38:06;26.80;;;16.63;;
29548;SDS011;16487;53.094;8.800;2022-09-27T01:40:43;25.47;;;16.47;;
29548;SDS011;16487;53.094;8.800;2022-09-27T01:43:36;29.23;;;15.60;;
29548;SDS011;16487;53.094;8.800;2022-09-27T01:46:12;24.87;;;15.87;;
29548;SDS011;16487;53.094;8.800;2022-09-27T01:49:15;27.33;;;16.73;;
29548;SDS011;16487;53.094;8.800;2022-09-27T01:51:46;26.13;;;15.33;;
29548;SDS011;16487;53.094;8.800;2022-09-27T01:54:20;24.00;;;15.53;;
29548;SDS011;16487;53.094;8.800;2022-09-27T01:57:30;23.77;;;15.00;;
29548;SDS011;16487;53.094;8.800;2022-09-27T02:00:06;20.30;;;11.97;;
29548;SDS011;16487;53.094;8.800;2022-09-27T02:02:43;18.40;;;12.70;;
29548;SDS011;16487;53.094;8.800;2022-09-27T02:05:30;19.03;;;13.27;;
29548;SDS011;16487;53.094;8.800;2022-09-27T02:08:22;20.87;;;13.63;;
29548;SDS011;16487;53.094;8.800;2022-09-27T02:10:59;17.83;;;12.77;;
29548;SDS011;16487;53.094;8.800;2022-09-27T02:13:32;18.63;;;12.17;;
29548;SDS011;16487;53.094;8.800;2022-09-27T02:16:27;18.23;;;10.50;;
29548;SDS011;16487;53.094;8.800;2022-09-27T02:19:04;13.33;;;10.27;;
29548;SDS011;16487;53.094;8.800;2022-09-27T02:21:39;15.53;;;10.00;;
29548;SDS011;16487;53.094;8.800;2022-09-27T02:24:11;17.27;;;10.37;;
29548;SDS011;16487;53.094;8.800;2022-09-27T02:26:46;15.80;;;9.97;;
29548;SDS011;16487;53.094;8.800;2022-09-27T02:29:20;12.47;;;9.53;;
29548;SDS011;16487;53.094;8.800;2022-09-27T02:31:54;14.83;;;9.00;;
29548;SDS011;16487;53.094;8.800;2022-09-27T02:34:23;15.60;;;8.77;;
29548;SDS011;16487;53.094;8.800;2022-09-27T02:36:54;13.17;;;8.53;;
29548;SDS011;16487;53.094;8.800;2022-09-27T02:39:21;12.03;;;8.20;;
29548;SDS011;16487;53.094;8.800;2022-09-27T02:41:58;12.00;;;7.70;;
29548;SDS011;16487;53.094;8.800;2022-09-27T02:44:25;13.80;;;8.87;;
29548;SDS011;16487;53.094;8.800;2022-09-27T02:47:02;10.30;;;8.20;;
29548;SDS011;16487;53.094;8.800;2022-09-27T02:49:59;13.57;;;8.50;;
29548;SDS011;16487;53.094;8.800;2022-09-27T02:53:05;11.37;;;6.40;;
29548;SDS011;16487;53.094;8.800;2022-09-27T02:55:50;12.93;;;7.40;;
29548;SDS011;16487;53.094;8.800;2022-09-27T02:59:04;8.70;;;5.80;;
29548;SDS011;16487;53.094;8.800;2022-09-27T03:01:56;7.67;;;6.03;;
29548;SDS011;16487;53.094;8.800;2022-09-27T03:04:55;6.07;;;5.20;;
29548;SDS011;16487;53.094;8.800;2022-09-27T03:07:28;7.40;;;5.57;;
29548;SDS011;16487;53.094;8.800;2022-09-27T03:09:56;9.07;;;5.20;;
29548;SDS011;16487;53.094;8.800;2022-09-27T03:12:24;6.40;;;4.17;;
29548;SDS011;16487;53.094;8.800;2022-09-27T03:14:52;7.00;;;3.60;;
29548;SDS011;16487;53.094;8.800;2022-09-27T03:17:41;8.07;;;4.10;;
29548;SDS011;16487;53.094;8.800;2022-09-27T03:20:29;4.10;;;3.40;;
29548;SDS011;16487;53.094;8.800;2022-09-27T03:23:15;6.23;;;3.20;;
29548;SDS011;16487;53.094;8.800;2022-09-27T03:25:42;4.90;;;3.30;;
29548;SDS011;16487;53.094;8.800;2022-09-27T03:28:11;6.93;;;3.60;;
29548;SDS011;16487;53.094;8.800;2022-09-27T03:30:40;5.43;;;2.90;;
29548;SDS011;16487;53.094;8.800;2022-09-27T03:33:09;3.57;;;3.23;;
29548;SDS011;16487;53.094;8.800;2022-09-27T03:35:41;3.70;;;1.90;;
29548;SDS011;16487;53.094;8.800;2022-09-27T03:38:09;5.50;;;2.67;;
29548;SDS011;16487;53.094;8.800;2022-09-27T03:40:36;3.10;;;2.07;;
29548;SDS011;16487;53.094;8.800;2022-09-27T03:43:05;3.40;;;2.40;;
29548;SDS011;16487;53.094;8.800;2022-09-27T03:45:33;5.50;;;2.27;;
29548;SDS011;16487;53.094;8.800;2022-09-27T03:48:04;3.63;;;2.03;;
29548;SDS011;16487;53.094;8.800;2022-09-27T03:50:32;4.80;;;2.70;;
29548;SDS011;16487;53.094;8.800;2022-09-27T03:53:00;4.90;;;2.30;;
29548;SDS011;16487;53.094;8.800;2022-09-27T03:55:28;5.57;;;2.50;;
29548;SDS011;16487;53.094;8.800;2022-09-27T03:57:55;3.03;;;2.17;;
29548;SDS011;16487;53.094;8.800;2022-09-27T04:00:23;3.90;;;2.13;;
29548;SDS011;16487;53.094;8.800;2022-09-27T04:02:50;5.40;;;2.87;;
29548;SDS011;16487;53.094;8.800;2022-09-27T04:05:21;9.07;;;4.03;;
29548;SDS011;16487;53.094;8.800;2022-09-27T04:07:49;6.90;;;3.00;;
29548;SDS011;16487;53.094;8.800;2022-09-27T04:10:19;5.37;;;3.70;;
29548;SDS011;16487;53.094;8.800;2022-09-27T04:12:48;7.47;;;3.87;;
29548;SDS011;16487;53.094;8.800;2022-09-27T04:15:16;8.13;;;5.30;;
29548;SDS011;16487;53.094;8.800;2022-09-27T04:17:47;9.67;;;5.50;;
29548;SDS011;16487;53.094;8.800;2022-09-27T04:20:29;9.20;;;6.30;;
29548;SDS011;16487;53.094;8.800;2022-09-27T04:22:57;9.20;;;6.00;;
29548;SDS011;16487;53.094;8.800;2022-09-27T04:25:26;11.03;;;6.50;;
29548;SDS011;16487;53.094;8.800;2022-09-27T04:27:57;12.57;;;7.07;;
29548;SDS011;16487;53.094;8.800;2022-09-27T04:30:25;11.33;;;6.23;;
29548;SDS011;16487;53.094;8.800;2022-09-27T04:32:58;11.27;;;6.93;;
29548;SDS011;16487;53.094;8.800;2022-09-27T04:35:46;14.07;;;8.40;;
29548;SDS011;16487;53.094;8.800;2022-09-27T04:38:15;13.80;;;8.07;;
29548;SDS011;16487;53.094;8.800;2022-09-27T04:40:44;10.33;;;6.70;;
29548;SDS011;16487;53.094;8.800;2022-09-27T04:43:11;9.80;;;7.43;;
29548;SDS011;16487;53.094;8.800;2022-09-27T04:45:39;11.50;;;7.90;;
29548;SDS011;16487;53.094;8.800;2022-09-27T04:48:07;12.90;;;6.60;;
29548;SDS011;16487;53.094;8.800;2022-09-27T04:50:34;13.20;;;7.83;;
29548;SDS011;16487;53.094;8.800;2022-09-27T04:53:02;13.30;;;6.27;;
29548;SDS011;16487;53.094;8.800;2022-09-27T04:55:30;11.03;;;5.90;;
29548;SDS011;16487;53.094;8.800;2022-09-27T04:57:59;9.37;;;6.60;;
29548;SDS011;16487;53.094;8.800;2022-09-27T05:00:27;9.70;;;5.93;;
29548;SDS011;16487;53.094;8.800;2022-09-27T05:03:02;9.10;;;6.00;;
29548;SDS011;16487;53.094;8.800;2022-09-27T05:05:41;11.33;;;6.80;;
29548;SDS011;16487;53.094;8.800;2022-09-27T05:08:09;10.53;;;6.73;;
29548;SDS011;16487;53.094;8.800;2022-09-27T05:11:03;6.53;;;4.73;;
29548;SDS011;16487;53.094;8.800;2022-09-27T05:13:32;6.90;;;5.67;;
29548;SDS011;16487;53.094;8.800;2022-09-27T05:16:00;9.60;;;5.00;;
29548;SDS011;16487;53.094;8.800;2022-09-27T05:18:46;6.23;;;4.37;;
29548;SDS011;16487;53.094;8.800;2022-09-27T05:21:37;7.73;;;5.07;;
29548;SDS011;16487;53.094;8.800;2022-09-27T05:24:04;9.67;;;4.87;;
29548;SDS011;16487;53.094;8.800;2022-09-27T05:26:32;8.60;;;4.03;;
29548;SDS011;16487;53.094;8.800;2022-09-27T05:29:01;10.13;;;5.37;;
29548;SDS011;16487;53.094;8.800;2022-09-27T05:31:28;8.10;;;4.93;;
29548;SDS011;16487;53.094;8.800;2022-09-27T05:33:56;10.80;;;4.60;;
29548;SDS011;16487;53.094;8.800;2022-09-27T05:36:35;8.67;;;5.10;;
29548;SDS011;16487;53.094;8.800;2022-09-27T05:39:03;7.60;;;4.60;;
29548;SDS011;16487;53.094;8.800;2022-09-27T05:41:31;7.03;;;4.80;;
29548;SDS011;16487;53.094;8.800;2022-09-27T05:43:59;7.80;;;4.83;;
29548;SDS011;16487;53.094;8.800;2022-09-27T05:46:28;8.40;;;5.53;;
29548;SDS011;16487;53.094;8.800;2022-09-27T05:48:56;6.67;;;5.10;;
29548;SDS011;16487;53.094;8.800;2022-09-27T05:51:23;10.97;;;5.80;;
29548;SDS011;16487;53.094;8.800;2022-09-27T05:53:50;9.90;;;5.53;;
29548;SDS011;16487;53.094;8.800;2022-09-27T05:56:26;8.57;;;5.60;;
29548;SDS011;16487;53.094;8.800;2022-09-27T05:59:21;9.07;;;5.10;;
29548;SDS011;16487;53.094;8.800;2022-09-27T06:02:27;9.50;;;5.27;;
29548;SDS011;16487;53.094;8.800;2022-09-27T06:05:30;6.37;;;5.67;;
29548;SDS011;16487;53.094;8.800;2022-09-27T06:08:19;8.00;;;6.10;;
29548;SDS011;16487;53.094;8.800;2022-09-27T06:10:49;7.13;;;4.70;;
29548;SDS011;16487;53.094;8.800;2022-09-27T06:13:16;8.67;;;5.30;;
29548;SDS011;16487;53.094;8.800;2022-09-27T06:15:46;7.60;;;5.20;;
29548;SDS011;16487;53.094;8.800;2022-09-27T06:18:14;7.73;;;5.60;;
29548;SDS011;16487;53.094;8.800;2022-09-27T06:20:43;8.00;;;5.13;;
29548;SDS011;16487;53.094;8.800;2022-09-27T06:23:13;8.17;;;5.20;;
29548;SDS011;16487;53.094;8.800;2022-09-27T06:25:42;7.80;;;5.43;;
29548;SDS011;16487;53.094;8.800;2022-09-27T06:28:21;6.33;;;5.23;;
29548;SDS011;16487;53.094;8.800;2022-09-27T06:30:54;7.90;;;5.70;;
29548;SDS011;16487;53.094;8.800;2022-09-27T06:33:37;8.87;;;6.53;;
29548;SDS011;16487;53.094;8.800;2022-09-27T06:36:05;7.90;;;5.50;;
29548;SDS011;16487;53.094;8.800;2022-09-27T06:38:35;13.23;;;5.60;;
29548;SDS011;16487;53.094;8.800;2022-09-27T06:41:25;9.47;;;5.63;;
29548;SDS011;16487;53.094;8.800;2022-09-27T06:44:13;7.70;;;5.03;;
29548;SDS011;16487;53.094;8.800;2022-09-27T06:47:00;6.93;;;4.50;;
29548;SDS011;16487;53.094;8.800;2022-09-27T06:50:04;5.97;;;4.60;;
29548;SDS011;16487;53.094;8.800;2022-09-27T06:52:34;8.00;;;4.87;;
29548;SDS011;16487;53.094;8.800;2022-09-27T06:55:03;5.47;;;4.00;;
29548;SDS011;16487;53.094;8.800;2022-09-27T06:57:33;6.67;;;4.50;;
29548;SDS011;16487;53.094;8.800;2022-09-27T07:00:00;8.53;;;5.00;;
29548;SDS011;16487;53.094;8.800;2022-09-27T07:03:01;4.73;;;3.30;;
29548;SDS011;16487;53.094;8.800;2022-09-27T07:05:55;4.57;;;3.63;;
29548;SDS011;16487;53.094;8.800;2022-09-27T07:08:40;4.17;;;3.07;;
29548;SDS011;16487;53.094;8.800;2022-09-27T07:11:07;5.50;;;3.10;;
29548;SDS011;16487;53.094;8.800;2022-09-27T07:13:35;4.23;;;2.70;;
29548;SDS011;16487;53.094;8.800;2022-09-27T07:16:02;4.87;;;3.50;;
29548;SDS011;16487;53.094;8.800;2022-09-27T07:18:32;4.73;;;2.50;;
29548;SDS011;16487;53.094;8.800;2022-09-27T07:20:59;2.60;;;2.13;;
29548;SDS011;16487;53.094;8.800;2022-09-27T07:23:26;9.80;;;2.77;;
29548;SDS011;16487;53.094;8.800;2022-09-27T07:25:59;4.10;;;2.57;;
29548;SDS011;16487;53.094;8.800;2022-09-27T07:28:27;2.17;;;1.97;;
29548;SDS011;16487;53.094;8.800;2022-09-27T07:30:54;3.20;;;2.50;;
29548;SDS011;16487;53.094;8.800;2022-09-27T07:33:22;3.93;;;2.00;;
29548;SDS011;16487;53.094;8.800;2022-09-27T07:35:51;6.47;;;2.30;;
29548;SDS011;16487;53.094;8.800;2022-09-27T07:38:19;2.83;;;2.43;;
29548;SDS011;16487;53.094;8.800;2022-09-27T07:40:46;2.63;;;2.00;;
29548;SDS011;16487;53.094;8.800;2022-09-27T07:43:14;2.30;;;2.10;;
29548;SDS011;16487;53.094;8.800;2022-09-27T07:45:42;4.87;;;1.83;;
29548;SDS011;16487;53.094;8.800;2022-09-27T07:48:29;2.50;;;1.90;;
29548;SDS011;16487;53.094;8.800;2022-09-27T07:51:24;2.57;;;1.60;;
29548;SDS011;16487;53.094;8.800;2022-09-27T07:53:59;3.03;;;1.70;;
29548;SDS011;16487;53.094;8.800;2022-09-27T07:56:50;2.77;;;1.90;;
29548;SDS011;16487;53.094;8.800;2022-09-27T07:59:20;1.10;;;1.00;;
29548;SDS011;16487;53.094;8.800;2022-09-27T08:01:47;3.13;;;1.40;;
29548;SDS011;16487;53.094;8.800;2022-09-27T08:04:16;2.53;;;1.30;;
29548;SDS011;16487;53.094;8.800;2022-09-27T08:06:44;2.57;;;1.40;;
29548;SDS011;16487;53.094;8.800;2022-09-27T08:09:12;2.87;;;1.60;;
29548;SDS011;16487;53.094;8.800;2022-09-27T08:11:40;3.60;;;2.00;;
29548;SDS011;16487;53.094;8.800;2022-09-27T08:14:08;2.53;;;2.03;;
29548;SDS011;16487;53.094;8.800;2022-09-27T08:16:38;4.27;;;2.30;;
29548;SDS011;16487;53.094;8.800;2022-09-27T08:19:14;2.20;;;1.60;;
29548;SDS011;16487;53.094;8.800;2022-09-27T08:21:54;2.80;;;2.00;;
29548;SDS011;16487;53.094;8.800;2022-09-27T08:24:45;2.63;;;1.37;;
29548;SDS011;16487;53.094;8.800;2022-09-27T08:27:24;3.73;;;1.60;;
29548;SDS011;16487;53.094;8.800;2022-09-27T08:29:55;3.13;;;1.30;;
29548;SDS011;16487;53.094;8.800;2022-09-27T08:32:22;1.70;;;1.50;;
29548;SDS011;16487;53.094;8.800;2022-09-27T08:34:50;1.70;;;1.33;;
29548;SDS011;16487;53.094;8.800;2022-09-27T08:37:21;2.43;;;1.63;;
29548;SDS011;16487;53.094;8.800;2022-09-27T08:39:49;1.40;;;1.30;;
29548;SDS011;16487;53.094;8.800;2022-09-27T08:42:20;1.33;;;1.10;;
29548;SDS011;16487;53.094;8.800;2022-09-27T08:44:55;4.50;;;1.20;;
29548;SDS011;16487;53.094;8.800;2022-09-27T08:47:32;3.80;;;1.50;;
29548;SDS011;16487;53.094;8.800;2022-09-27T08:50:07;2.53;;;1.23;;
29548;SDS011;16487;53.094;8.800;2022-09-27T08:52:46;2.43;;;1.43;;
29548;SDS011;16487;53.094;8.800;2022-09-27T08:55:19;1.40;;;1.30;;
29548;SDS011;16487;53.094;8.800;2022-09-27T08:57:52;3.37;;;0.97;;
29548;SDS011;16487;53.094;8.800;2022-09-27T09:00:23;1.50;;;1.40;;
29548;SDS011;16487;53.094;8.800;2022-09-27T09:02:50;2.43;;;1.40;;
29548;SDS011;16487;53.094;8.800;2022-09-27T09:05:23;1.60;;;1.50;;
29548;SDS011;16487;53.094;8.800;2022-09-27T09:08:07;3.53;;;1.60;;
29548;SDS011;16487;53.094;8.800;2022-09-27T09:10:48;2.90;;;1.50;;
29548;SDS011;16487;53.094;8.800;2022-09-27T09:13:22;3.87;;;1.43;;
29548;SDS011;16487;53.094;8.800;2022-09-27T09:16:07;1.90;;;1.20;;
29548;SDS011;16487;53.094;8.800;2022-09-27T09:18:51;1.97;;;1.10;;
29548;SDS011;16487;53.094;8.800;2022-09-27T09:21:58;2.20;;;0.90;;
29548;SDS011;16487;53.094;8.800;2022-09-27T09:24:46;1.00;;;0.70;;
29548;SDS011;16487;53.094;8.800;2022-09-27T09:27:29;1.93;;;0.90;;
29548;SDS011;16487;53.094;8.800;2022-09-27T09:30:13;3.70;;;1.00;;
29548;SDS011;16487;53.094;8.800;2022-09-27T09:33:01;0.90;;;0.83;;
29548;SDS011;16487;53.094;8.800;2022-09-27T09:35:47;0.87;;;0.73;;
29548;SDS011;16487;53.094;8.800;2022-09-27T09:38:19;4.00;;;0.90;;
29548;SDS011;16487;53.094;8.800;2022-09-27T09:40:53;1.20;;;1.10;;
29548;SDS011;16487;53.094;8.800;2022-09-27T09:43:25;1.40;;;1.00;;
29548;SDS011;16487;53.094;8.800;2022-09-27T09:45:59;1.43;;;1.03;;
29548;SDS011;16487;53.094;8.800;2022-09-27T09:48:34;1.20;;;1.10;;
29548;SDS011;16487;53.094;8.800;2022-09-27T09:51:11;3.33;;;1.40;;
29548;SDS011;16487;53.094;8.800;2022-09-27T09:53:44;2.67;;;1.20;;
29548;SDS011;16487;53.094;8.800;2022-09-27T09:56:24;2.03;;;1.20;;
29548;SDS011;16487;53.094;8.800;2022-09-27T09:58:56;3.57;;;1.40;;
29548;SDS011;16487;53.094;8.800;2022-09-27T10:01:32;2.83;;;1.17;;
29548;SDS011;16487;53.094;8.800;2022-09-27T10:04:03;2.17;;;1.40;;
29548;SDS011;16487;53.094;8.800;2022-09-27T10:06:30;2.97;;;1.57;;
29548;SDS011;16487;53.094;8.800;2022-09-27T10:09:01;5.27;;;2.03;;
29548;SDS011;16487;53.094;8.800;2022-09-27T10:11:50;2.30;;;1.40;;
29548;SDS011;16487;53.094;8.800;2022-09-27T10:14:24;14.93;;;2.20;;
29548;SDS011;16487;53.094;8.800;2022-09-27T10:16:57;2.73;;;2.20;;
29548;SDS011;16487;53.094;8.800;2022-09-27T10:19:30;1.83;;;1.50;;
29548;SDS011;16487;53.094;8.800;2022-09-27T10:22:09;2.87;;;1.50;;
29548;SDS011;16487;53.094;8.800;2022-09-27T10:24:51;1.90;;;1.43;;
29548;SDS011;16487;53.094;8.800;2022-09-27T10:27:41;3.43;;;1.70;;
29548;SDS011;16487;53.094;8.800;2022-09-27T10:30:20;3.50;;;1.40;;
29548;SDS011;16487;53.094;8.800;2022-09-27T10:32:55;4.00;;;1.73;;
29548;SDS011;16487;53.094;8.800;2022-09-27T10:35:44;1.57;;;1.30;;
29548;SDS011;16487;53.094;8.800;2022-09-27T10:38:23;3.90;;;1.30;;
29548;SDS011;16487;53.094;8.800;2022-09-27T10:41:19;2.30;;;1.73;;
29548;SDS011;16487;53.094;8.800;2022-09-27T10:47:08;1.10;;;1.00;;
29548;SDS011;16487;53.094;8.800;2022-09-27T10:49:52;3.20;;;1.37;;
29548;SDS011;16487;53.094;8.800;2022-09-27T10:53:03;1.40;;;1.30;;
29548;SDS011;16487;53.094;8.800;2022-09-27T10:55:33;2.27;;;1.47;;
29548;SDS011;16487;53.094;8.800;2022-09-27T10:58:03;2.00;;;1.60;;
29548;SDS011;16487;53.094;8.800;2022-09-27T11:00:32;1.40;;;1.30;;
29548;SDS011;16487;53.094;8.800;2022-09-27T11:03:04;5.90;;;1.97;;
29548;SDS011;16487;53.094;8.800;2022-09-27T11:05:35;2.17;;;1.30;;
29548;SDS011;16487;53.094;8.800;2022-09-27T11:08:19;1.60;;;1.50;;
29548;SDS011;16487;53.094;8.800;2022-09-27T11:11:14;5.10;;;1.87;;
29548;SDS011;16487;53.094;8.800;2022-09-27T11:13:56;2.40;;;1.77;;
29548;SDS011;16487;53.094;8.800;2022-09-27T11:16:32;3.70;;;1.90;;
29548;SDS011;16487;53.094;8.800;2022-09-27T11:19:13;6.40;;;2.47;;
29548;SDS011;16487;53.094;8.800;2022-09-27T11:21:54;5.40;;;2.50;;
29548;SDS011;16487;53.094;8.800;2022-09-27T11:24:32;4.07;;;1.90;;
29548;SDS011;16487;53.094;8.800;2022-09-27T11:27:15;2.70;;;2.10;;
29548;SDS011;16487;53.094;8.800;2022-09-27T11:29:55;4.17;;;2.50;;
29548;SDS011;16487;53.094;8.800;2022-09-27T11:33:01;3.67;;;2.70;;
29548;SDS011;16487;53.094;8.800;2022-09-27T11:35:49;2.37;;;2.17;;
29548;SDS011;16487;53.094;8.800;2022-09-27T11:38:23;3.33;;;2.70;;
29548;SDS011;16487;53.094;8.800;2022-09-27T11:41:20;9.10;;;3.30;;
29548;SDS011;16487;53.094;8.800;2022-09-27T11:43:59;27.20;;;19.43;;
29548;SDS011;16487;53.094;8.800;2022-09-27T11:46:42;32.83;;;20.10;;
29548;SDS011;16487;53.094;8.800;2022-09-27T11:49:23;24.07;;;16.77;;
29548;SDS011;16487;53.094;8.800;2022-09-27T11:52:19;18.73;;;16.80;;
29548;SDS011;16487;53.094;8.800;2022-09-27T11:55:02;4.10;;;3.70;;
29548;SDS011;16487;53.094;8.800;2022-09-27T11:57:41;15.60;;;14.20;;
29548;SDS011;16487;53.094;8.800;2022-09-27T12:00:17;3.93;;;3.53;;
29548;SDS011;16487;53.094;8.800;2022-09-27T12:06:23;4.30;;;2.60;;
29548;SDS011;16487;53.094;8.800;2022-09-27T12:08:58;3.63;;;2.90;;
29548;SDS011;16487;53.094;8.800;2022-09-27T12:11:33;3.03;;;2.73;;
29548;SDS011;16487;53.094;8.800;2022-09-27T12:14:08;2.73;;;2.13;;
29548;SDS011;16487;53.094;8.800;2022-09-27T12:16:42;3.60;;;2.40;;
29548;SDS011;16487;53.094;8.800;2022-09-27T12:19:14;3.77;;;2.90;;
29548;SDS011;16487;53.094;8.800;2022-09-27T12:22:01;4.20;;;2.87;;
29548;SDS011;16487;53.094;8.800;2022-09-27T12:24:34;5.67;;;3.20;;
29548;SDS011;16487;53.094;8.800;2022-09-27T12:27:12;10.00;;;8.73;;
29548;SDS011;16487;53.094;8.800;2022-09-27T12:29:43;3.13;;;2.80;;
29548;SDS011;16487;53.094;8.800;2022-09-27T12:32:13;4.63;;;2.00;;
29548;SDS011;16487;53.094;8.800;2022-09-27T12:34:45;3.07;;;1.60;;
29548;SDS011;16487;53.094;8.800;2022-09-27T12:37:22;3.83;;;1.77;;
29548;SDS011;16487;53.094;8.800;2022-09-27T12:39:55;3.90;;;2.47;;
29548;SDS011;16487;53.094;8.800;2022-09-27T12:42:32;2.00;;;1.60;;
29548;SDS011;16487;53.094;8.800;2022-09-27T12:45:14;2.97;;;1.50;;
29548;SDS011;16487;53.094;8.800;2022-09-27T12:47:45;1.70;;;1.60;;
29548;SDS011;16487;53.094;8.800;2022-09-27T12:50:29;3.07;;;1.80;;
29548;SDS011;16487;53.094;8.800;2022-09-27T12:53:04;2.10;;;1.60;;
29548;SDS011;16487;53.094;8.800;2022-09-27T12:55:50;4.13;;;1.60;;
29548;SDS011;16487;53.094;8.800;2022-09-27T12:58:51;8.60;;;4.30;;
29548;SDS011;16487;53.094;8.800;2022-09-27T13:07:50;1.90;;;1.70;;
29548;SDS011;16487;53.094;8.800;2022-09-27T13:10:36;3.53;;;3.20;;
29548;SDS011;16487;53.094;8.800;2022-09-27T13:13:21;2.97;;;1.63;;
29548;SDS011;16487;53.094;8.800;2022-09-27T13:15:53;2.03;;;1.00;;
29548;SDS011;16487;53.094;8.800;2022-09-27T13:18:30;1.93;;;1.20;;
29548;SDS011;16487;53.094;8.800;2022-09-27T13:24:41;2.80;;;1.00;;
29548;SDS011;16487;53.094;8.800;2022-09-27T13:36:17;1.50;;;1.40;;
29548;SDS011;16487;53.094;8.800;2022-09-27T13:39:12;3.40;;;2.20;;
29548;SDS011;16487;53.094;8.800;2022-09-27T13:42:13;1.77;;;1.40;;
29548;SDS011;16487;53.094;8.800;2022-09-27T13:44:53;1.57;;;0.97;;
29548;SDS011;16487;53.094;8.800;2022-09-27T13:47:42;1.73;;;1.20;;
29548;SDS011;16487;53.094;8.800;2022-09-27T13:50:21;0.90;;;0.60;;
29548;SDS011;16487;53.094;8.800;2022-09-27T13:52:57;0.80;;;0.70;;
29548;SDS011;16487;53.094;8.800;2022-09-27T13:55:36;1.53;;;0.67;;
29548;SDS011;16487;53.094;8.800;2022-09-27T13:58:16;1.57;;;0.70;;
29548;SDS011;16487;53.094;8.800;2022-09-27T14:01:03;2.80;;;0.53;;
29548;SDS011;16487;53.094;8.800;2022-09-27T14:03:50;0.40;;;0.40;;
29548;SDS011;16487;53.094;8.800;2022-09-27T14:06:21;1.23;;;0.83;;
29548;SDS011;16487;53.094;8.800;2022-09-27T14:08:55;1.17;;;0.60;;
29548;SDS011;16487;53.094;8.800;2022-09-27T14:11:25;1.77;;;0.50;;
29548;SDS011;16487;53.094;8.800;2022-09-27T14:13:56;2.90;;;0.70;;
29548;SDS011;16487;53.094;8.800;2022-09-27T14:16:31;3.67;;;0.60;;
29548;SDS011;16487;53.094;8.800;2022-09-27T14:19:02;0.80;;;0.60;;
29548;SDS011;16487;53.094;8.800;2022-09-27T14:21:36;0.60;;;0.40;;
29548;SDS011;16487;53.094;8.800;2022-09-27T14:24:21;1.07;;;0.60;;
29548;SDS011;16487;53.094;8.800;2022-09-27T14:29:50;1.53;;;0.57;;
29548;SDS011;16487;53.094;8.800;2022-09-27T14:32:24;0.60;;;0.53;;
29548;SDS011;16487;53.094;8.800;2022-09-27T14:35:01;38.00;;;23.40;;
29548;SDS011;16487;53.094;8.800;2022-09-27T14:37:30;16.07;;;10.10;;
29548;SDS011;16487;53.094;8.800;2022-09-27T14:40:17;1.97;;;0.97;;
29548;SDS011;16487;53.094;8.800;2022-09-27T14:42:46;1.00;;;0.77;;
29548;SDS011;16487;53.094;8.800;2022-09-27T14:45:20;1.03;;;0.60;;
29548;SDS011;16487;53.094;8.800;2022-09-27T14:47:51;1.17;;;0.50;;
29548;SDS011;16487;53.094;8.800;2022-09-27T14:50:20;0.70;;;0.50;;
29548;SDS011;16487;53.094;8.800;2022-09-27T14:52:49;0.70;;;0.60;;
29548;SDS011;16487;53.094;8.800;2022-09-27T14:55:18;0.60;;;0.60;;
29548;SDS011;16487;53.094;8.800;2022-09-27T14:57:48;1.00;;;0.80;;
29548;SDS011;16487;53.094;8.800;2022-09-27T15:00:18;1.87;;;0.90;;
29548;SDS011;16487;53.094;8.800;2022-09-27T15:02:47;1.20;;;1.10;;
29548;SDS011;16487;53.094;8.800;2022-09-27T15:05:18;2.77;;;1.23;;
29548;SDS011;16487;53.094;8.800;2022-09-27T15:07:46;1.63;;;0.90;;
29548;SDS011;16487;53.094;8.800;2022-09-27T15:10:14;3.13;;;1.20;;
29548;SDS011;16487;53.094;8.800;2022-09-27T15:12:43;1.30;;;0.80;;
29548;SDS011;16487;53.094;8.800;2022-09-27T15:15:13;2.10;;;0.83;;
29548;SDS011;16487;53.094;8.800;2022-09-27T15:17:42;1.00;;;0.90;;
29548;SDS011;16487;53.094;8.800;2022-09-27T15:20:19;2.13;;;1.60;;
29548;SDS011;16487;53.094;8.800;2022-09-27T15:22:49;1.63;;;0.87;;
29548;SDS011;16487;53.094;8.800;2022-09-27T15:25:19;0.73;;;0.70;;
29548;SDS011;16487;53.094;8.800;2022-09-27T15:27:54;1.57;;;1.07;;
29548;SDS011;16487;53.094;8.800;2022-09-27T15:30:24;3.90;;;1.30;;
29548;SDS011;16487;53.094;8.800;2022-09-27T15:32:56;0.93;;;0.73;;
29548;SDS011;16487;53.094;8.800;2022-09-27T15:35:26;1.80;;;0.90;;
29548;SDS011;16487;53.094;8.800;2022-09-27T15:40:58;1.23;;;1.13;;
29548;SDS011;16487;53.094;8.800;2022-09-27T15:43:31;1.03;;;0.90;;
29548;SDS011;16487;53.094;8.800;2022-09-27T15:46:00;1.33;;;1.00;;
29548;SDS011;16487;53.094;8.800;2022-09-27T15:48:30;0.90;;;0.80;;
29548;SDS011;16487;53.094;8.800;2022-09-27T15:51:00;0.93;;;0.70;;
29548;SDS011;16487;53.094;8.800;2022-09-27T15:53:40;2.87;;;1.00;;
29548;SDS011;16487;53.094;8.800;2022-09-27T15:56:09;1.20;;;1.10;;
29548;SDS011;16487;53.094;8.800;2022-09-27T15:58:40;1.17;;;1.00;;
29548;SDS011;16487;53.094;8.800;2022-09-27T16:01:13;3.53;;;1.80;;
29548;SDS011;16487;53.094;8.800;2022-09-27T16:03:44;1.90;;;1.37;;
29548;SDS011;16487;53.094;8.800;2022-09-27T16:06:12;2.80;;;1.30;;
29548;SDS011;16487;53.094;8.800;2022-09-27T16:08:40;1.90;;;1.60;;
29548;SDS011;16487;53.094;8.800;2022-09-27T16:11:08;3.43;;;2.30;;